Terminal Aerodrome Forecast
Issued by NWS

Home | Current Version | Previous Version | Text Only | Print | Product List | Glossary On
Versions: 1 2 3 4 5 6 7 8 9 10 11 12 13 14 15 16 17
000
FTUS44 KLIX 171730
TAFHDC
TAF
KHDC 171730Z 1718/1818 14008KT P6SM SKC
     FM180600 18005KT P6SM FEW010 SCT100
     FM180900 19005KT 3SM BR SCT008 BKN050
     FM181300 19006KT P6SM SCT003 BKN035
     FM181600 21010KT P6SM SCT010 BKN025=

USA.gov is the U.S. government's official web portal to all federal, state and local government web resources and services.